createdAt,value
2019-04-28T00:00:33.453Z,87.51
2019-04-28T00:02:26.356Z,87.60
2019-04-28T00:03:26.366Z,87.65
2019-04-28T00:05:21.025Z,88.03
2019-04-28T00:06:21.070Z,87.41
2019-04-28T00:08:12.189Z,87.65
2019-04-28T00:09:12.193Z,87.41
2019-04-28T00:11:05.094Z,87.60
2019-04-28T00:12:05.104Z,88.22
2019-04-28T00:13:58.016Z,88.08
2019-04-28T00:14:58.015Z,87.89
2019-04-28T00:16:51.290Z,87.98
2019-04-28T00:17:51.612Z,88.12
2019-04-28T00:19:43.836Z,88.37
2019-04-28T00:20:43.841Z,88.41
2019-04-28T00:22:36.742Z,88.31
2019-04-28T00:23:36.752Z,88.60
2019-04-28T00:25:31.210Z,88.37
2019-04-28T00:26:31.073Z,88.27
2019-04-28T00:28:22.576Z,88.27
2019-04-28T00:29:22.577Z,88.37
2019-04-28T00:31:15.482Z,89.36
2019-04-28T00:32:15.494Z,89.17
2019-04-28T00:34:08.401Z,88.89
2019-04-28T00:35:08.405Z,89.07
2019-04-28T00:37:01.428Z,89.26
2019-04-28T00:38:01.506Z,89.03
2019-04-28T00:39:54.229Z,89.26
2019-04-28T00:40:54.232Z,88.51
2019-04-28T00:42:47.136Z,88.51
2019-04-28T00:43:47.147Z,88.22
2019-04-28T00:45:41.351Z,88.41
2019-04-28T00:46:41.065Z,88.51
2019-04-28T00:48:32.969Z,88.60
2019-04-28T00:49:32.972Z,88.51
2019-04-28T00:51:25.876Z,88.51
2019-04-28T00:52:25.883Z,88.60
2019-04-28T00:54:18.794Z,88.41
2019-04-28T00:55:18.799Z,88.22
2019-04-28T00:57:11.703Z,88.51
2019-04-28T00:58:11.712Z,88.41
2019-04-28T01:00:04.619Z,88.03
2019-04-28T01:01:04.624Z,88.12
2019-04-28T01:02:57.524Z,88.12
2019-04-28T01:03:57.534Z,88.12
2019-04-28T01:05:50.892Z,88.22
2019-04-28T01:06:52.042Z,88.22
2019-04-28T01:08:43.359Z,88.12
2019-04-28T01:09:43.363Z,87.84
2019-04-28T01:11:36.266Z,87.84
2019-04-28T01:12:36.275Z,88.03
2019-04-28T01:14:30.909Z,88.22
2019-04-28T01:15:29.846Z,87.84
2019-04-28T01:17:22.098Z,88.22
2019-04-28T01:18:22.103Z,88.03
2019-04-28T01:20:15.014Z,87.65
2019-04-28T01:21:15.020Z,87.93
2019-04-28T01:23:07.919Z,87.74
2019-04-28T01:24:09.505Z,88.22
2019-04-28T01:26:00.839Z,87.93
2019-04-28T01:27:00.843Z,87.93
2019-04-28T01:28:53.751Z,87.93
2019-04-28T01:30:05.366Z,87.84
2019-04-28T01:31:46.660Z,87.74
2019-04-28T01:32:46.669Z,87.55
2019-04-28T01:34:40.083Z,87.17
2019-04-28T01:35:39.808Z,87.36
2019-04-28T01:37:32.485Z,87.55
2019-04-28T01:38:32.497Z,87.17
2019-04-28T01:40:25.406Z,87.27
2019-04-28T01:41:25.410Z,87.55
2019-04-28T01:43:19.593Z,87.93
2019-04-28T01:44:19.874Z,87.46
2019-04-28T01:46:11.225Z,87.74
2019-04-28T01:47:11.233Z,87.84
2019-04-28T01:49:04.144Z,87.46
2019-04-28T01:50:04.150Z,87.74
2019-04-28T01:51:57.053Z,87.36
2019-04-28T01:52:57.063Z,87.17
2019-04-28T01:54:50.284Z,87.17
2019-04-28T01:55:49.979Z,87.36
2019-04-28T01:57:42.881Z,87.17
2019-04-28T01:58:42.892Z,87.17
2019-04-28T02:00:35.801Z,87.07
2019-04-28T02:01:35.806Z,87.36
2019-04-28T02:03:30.600Z,87.07
2019-04-28T02:04:30.087Z,87.55
2019-04-28T02:06:21.628Z,86.88
2019-04-28T02:07:21.634Z,86.98
2019-04-28T02:09:14.541Z,86.88
2019-04-28T02:10:14.544Z,86.79
2019-04-28T02:12:07.456Z,86.84
2019-04-28T02:13:07.454Z,86.55
2019-04-28T02:15:01.152Z,87.07
2019-04-28T02:16:00.377Z,86.79
2019-04-28T02:17:53.283Z,86.69
2019-04-28T02:18:53.291Z,86.75
2019-04-28T02:20:46.211Z,86.75
2019-04-28T02:21:46.207Z,86.55
2019-04-28T02:23:39.709Z,86.55
2019-04-28T02:24:40.475Z,86.75
2019-04-28T02:26:32.023Z,86.69
2019-04-28T02:27:32.031Z,86.41
2019-04-28T02:29:24.942Z,86.60
2019-04-28T02:30:40.909Z,86.22
2019-04-28T02:32:23.785Z,86.18
2019-04-28T02:33:17.861Z,86.32
2019-04-28T02:35:10.985Z,86.22
2019-04-28T02:36:12.372Z,86.03
2019-04-28T02:38:03.686Z,85.36
2019-04-28T02:39:03.688Z,85.36
2019-04-28T02:40:56.595Z,85.36
2019-04-28T02:41:56.599Z,85.46
2019-04-28T02:43:50.973Z,85.46
2019-04-28T02:44:50.399Z,86.03
2019-04-28T02:46:42.418Z,85.46
2019-04-28T02:47:42.457Z,85.36
2019-04-28T02:49:35.358Z,85.55
2019-04-28T02:50:35.407Z,85.55
2019-04-28T02:52:30.928Z,85.74
2019-04-28T02:53:33.233Z,85.74
2019-04-28T02:55:21.401Z,85.36
2019-04-28T02:56:21.417Z,85.55
2019-04-28T02:58:14.062Z,85.17
2019-04-28T02:59:14.078Z,85.46
2019-04-28T03:01:17.966Z,84.88
2019-04-28T03:02:06.987Z,84.98
2019-04-28T03:04:00.424Z,85.17
2019-04-28T03:05:00.468Z,85.17
2019-04-28T03:06:52.810Z,85.08
2019-04-28T03:07:52.829Z,84.88
2019-04-28T03:09:45.727Z,84.98
2019-04-28T03:10:45.732Z,84.79
2019-04-28T03:12:41.135Z,84.88
2019-04-28T03:13:41.054Z,84.79
2019-04-28T03:15:31.551Z,84.79
2019-04-28T03:16:31.671Z,84.98
2019-04-28T03:18:24.457Z,84.98
2019-04-28T03:19:24.469Z,85.17
2019-04-28T03:21:17.375Z,85.27
2019-04-28T03:22:17.382Z,85.17
2019-04-28T03:24:11.020Z,84.88
2019-04-28T03:25:11.050Z,85.17
2019-04-28T03:27:03.562Z,84.88
2019-04-28T03:28:03.205Z,85.27
2019-04-28T03:29:56.127Z,84.69
2019-04-28T03:30:56.117Z,84.88
2019-04-28T03:32:55.428Z,85.17
2019-04-28T03:33:55.197Z,85.27
2019-04-28T03:35:43.894Z,85.27
2019-04-28T03:36:41.940Z,85.17
2019-04-28T03:38:34.846Z,85.08
2019-04-28T03:39:34.851Z,85.08
2019-04-28T03:41:27.772Z,84.69
2019-04-28T03:42:27.768Z,84.79
2019-04-28T03:44:20.971Z,84.79
2019-04-28T03:45:21.201Z,84.50
2019-04-28T03:47:13.584Z,84.50
2019-04-28T03:48:13.592Z,84.41
2019-04-28T03:50:06.534Z,84.22
2019-04-28T03:51:06.503Z,84.60
2019-04-28T03:53:01.106Z,84.69
2019-04-28T03:54:00.620Z,84.22
2019-04-28T03:55:52.323Z,84.12
2019-04-28T03:56:53.719Z,84.12
2019-04-28T03:58:45.243Z,84.31
2019-04-28T03:59:45.238Z,83.84
2019-04-28T04:01:53.071Z,83.74
2019-04-28T04:02:40.916Z,84.03
2019-04-28T04:04:32.227Z,83.93
2019-04-28T04:05:31.066Z,83.93
2019-04-28T04:07:23.968Z,83.93
2019-04-28T04:08:23.979Z,83.74
2019-04-28T04:10:16.895Z,83.65
2019-04-28T04:11:16.898Z,83.93
2019-04-28T04:13:10.930Z,83.74
2019-04-28T04:14:11.439Z,83.93
2019-04-28T04:16:02.713Z,83.93
2019-04-28T04:17:02.718Z,83.84
2019-04-28T04:18:55.627Z,84.31
2019-04-28T04:19:55.632Z,84.31
2019-04-28T04:21:50.544Z,84.31
2019-04-28T04:22:51.194Z,84.03
2019-04-28T04:24:41.454Z,83.93
2019-04-28T04:25:41.901Z,84.12
2019-04-28T04:27:34.359Z,84.27
2019-04-28T04:28:34.370Z,84.27
2019-04-28T04:30:27.277Z,84.98
2019-04-28T04:31:27.280Z,84.79
2019-04-28T04:33:20.943Z,84.69
2019-04-28T04:34:20.312Z,84.75
2019-04-28T04:36:13.114Z,85.13
2019-04-28T04:37:13.106Z,85.46
2019-04-28T04:39:06.017Z,85.22
2019-04-28T04:40:06.018Z,84.98
2019-04-28T04:42:00.664Z,85.41
2019-04-28T04:43:01.367Z,85.70
2019-04-28T04:44:51.842Z,85.55
2019-04-28T04:45:51.851Z,85.36
2019-04-28T04:47:44.749Z,85.22
2019-04-28T04:48:44.761Z,85.27
2019-04-28T04:50:37.679Z,85.08
2019-04-28T04:51:37.671Z,85.46
2019-04-28T04:53:30.859Z,85.27
2019-04-28T04:54:32.749Z,85.46
2019-04-28T04:56:23.490Z,84.98
2019-04-28T04:57:23.494Z,85.46
2019-04-28T04:59:16.404Z,84.98
2019-04-28T05:00:16.406Z,85.17
2019-04-28T05:02:09.978Z,84.98
2019-04-28T05:03:10.591Z,84.79
2019-04-28T05:05:02.230Z,84.60
2019-04-28T05:06:02.235Z,85.17
2019-04-28T05:07:55.139Z,85.17
2019-04-28T05:08:55.147Z,84.60
2019-04-28T05:10:48.063Z,84.98
2019-04-28T05:11:49.794Z,84.60
2019-04-28T05:13:40.965Z,84.79
2019-04-28T05:14:40.976Z,84.79
2019-04-28T05:16:33.886Z,84.41
2019-04-28T05:17:33.890Z,84.60
2019-04-28T05:19:26.797Z,84.50
2019-04-28T05:20:26.803Z,84.88
2019-04-28T05:22:20.193Z,85.08
2019-04-28T05:23:19.714Z,84.60
2019-04-28T05:25:12.624Z,84.98
2019-04-28T05:26:12.628Z,84.98
2019-04-28T05:28:05.539Z,84.50
2019-04-28T05:29:05.547Z,84.41
2019-04-28T05:31:00.078Z,84.22
2019-04-28T05:31:59.878Z,84.22
2019-04-28T05:33:51.362Z,84.31
2019-04-28T05:34:52.880Z,84.31
2019-04-28T05:36:44.770Z,83.84
2019-04-28T05:37:44.287Z,84.22
2019-04-28T05:39:38.565Z,84.03
2019-04-28T05:40:37.201Z,84.03
2019-04-28T05:42:30.279Z,83.78
2019-04-28T05:43:30.113Z,83.78
2019-04-28T05:45:23.021Z,83.50
2019-04-28T05:46:23.025Z,83.69
2019-04-28T05:48:15.926Z,83.50
2019-04-28T05:49:15.937Z,83.31
2019-04-28T05:51:09.420Z,83.78
2019-04-28T05:52:11.645Z,83.12
2019-04-28T05:54:01.760Z,83.59
2019-04-28T05:55:01.770Z,83.40
2019-04-28T05:56:54.684Z,83.31
2019-04-28T05:57:54.690Z,83.12
2019-04-28T05:59:47.599Z,83.31
2019-04-28T06:00:49.775Z,83.02
2019-04-28T06:02:53.523Z,82.49
2019-04-28T06:03:40.634Z,82.59
2019-04-28T06:05:33.428Z,82.30
2019-04-28T06:06:33.434Z,81.92
2019-04-28T06:08:26.358Z,82.30
2019-04-28T06:09:26.372Z,81.92
2019-04-28T06:11:20.237Z,81.25
2019-04-28T06:12:20.146Z,81.35
2019-04-28T06:14:12.189Z,80.77
2019-04-28T06:15:12.247Z,80.49
2019-04-28T06:17:05.113Z,80.77
2019-04-28T06:18:05.116Z,80.96
2019-04-28T06:20:00.047Z,80.30
2019-04-28T06:20:58.032Z,80.62
2019-04-28T06:22:50.939Z,80.72
2019-04-28T06:23:50.949Z,80.53
2019-04-28T06:25:43.863Z,79.48
2019-04-28T06:26:43.871Z,80.15
2019-04-28T06:28:36.775Z,79.96
2019-04-28T06:29:36.786Z,79.67
2019-04-28T06:31:29.700Z,78.72
2019-04-28T06:32:29.706Z,78.91
2019-04-28T06:34:22.609Z,78.81
2019-04-28T06:35:22.620Z,78.91
2019-04-28T06:37:15.533Z,78.05
2019-04-28T06:38:15.538Z,78.43
2019-04-28T06:40:08.464Z,78.37
2019-04-28T06:41:08.456Z,77.61
2019-04-28T06:43:01.366Z,78.47
2019-04-28T06:44:01.379Z,78.37
2019-04-28T06:45:54.287Z,77.61
2019-04-28T06:46:54.292Z,77.61
2019-04-28T06:48:47.201Z,76.88
2019-04-28T06:49:47.217Z,76.88
2019-04-28T06:51:40.138Z,75.93
2019-04-28T06:52:40.135Z,76.03
2019-04-28T06:54:33.044Z,75.93
2019-04-28T06:55:33.055Z,75.93
2019-04-28T06:57:26.008Z,76.12
2019-04-28T06:58:25.979Z,75.45
2019-04-28T07:00:18.891Z,74.40
2019-04-28T07:01:18.897Z,74.59
2019-04-28T07:03:22.701Z,74.40
2019-04-28T07:04:11.817Z,74.44
2019-04-28T07:06:04.729Z,74.82
2019-04-28T07:07:04.740Z,74.24
2019-04-28T07:08:57.645Z,73.48
2019-04-28T07:09:57.666Z,74.53
2019-04-28T07:11:51.072Z,74.05
2019-04-28T07:12:51.074Z,73.67
2019-04-28T07:14:43.994Z,72.91
2019-04-28T07:15:44.006Z,72.91
2019-04-28T07:17:36.920Z,73.19
2019-04-28T07:18:36.923Z,72.72
2019-04-28T07:20:29.841Z,72.91
2019-04-28T07:21:29.847Z,73.10
2019-04-28T07:23:22.757Z,72.05
2019-04-28T07:24:22.768Z,72.37
2019-04-28T07:26:15.684Z,72.47
2019-04-28T07:27:15.695Z,72.08
2019-04-28T07:29:08.613Z,71.22
2019-04-28T07:30:08.614Z,70.65
2019-04-28T07:32:01.542Z,70.36
2019-04-28T07:33:01.548Z,70.65
2019-04-28T07:34:54.460Z,70.84
2019-04-28T07:35:54.473Z,70.94
2019-04-28T07:37:47.390Z,70.17
2019-04-28T07:38:47.398Z,70.75
2019-04-28T07:40:40.313Z,71.03
2019-04-28T07:41:40.334Z,71.22
2019-04-28T07:43:33.231Z,71.73
2019-04-28T07:44:33.245Z,70.68
2019-04-28T07:46:26.170Z,71.16
2019-04-28T07:47:26.168Z,71.30
2019-04-28T07:49:19.082Z,69.29
2019-04-28T07:50:19.094Z,69.19
2019-04-28T07:52:12.011Z,68.42
2019-04-28T07:53:12.021Z,68.52
2019-04-28T07:55:04.930Z,67.76
2019-04-28T07:56:04.943Z,67.50
2019-04-28T07:57:57.882Z,67.79
2019-04-28T07:58:57.891Z,66.45
2019-04-28T08:00:50.821Z,66.45
2019-04-28T08:01:50.829Z,66.93
2019-04-28T08:03:49.595Z,65.49
2019-04-28T08:04:43.773Z,65.20
2019-04-28T08:06:36.677Z,65.91
2019-04-28T08:07:36.685Z,66.09
2019-04-28T08:09:29.605Z,66.67
2019-04-28T08:10:29.620Z,65.42
2019-04-28T08:12:22.540Z,64.12
2019-04-28T08:13:22.548Z,64.02
2019-04-28T08:15:15.463Z,64.31
2019-04-28T08:16:15.478Z,63.26
2019-04-28T08:18:08.401Z,63.45
2019-04-28T08:19:08.409Z,63.35
2019-04-28T08:21:01.340Z,61.82
2019-04-28T08:22:01.343Z,61.66
2019-04-28T08:23:54.252Z,62.59
2019-04-28T08:24:54.268Z,63.16
2019-04-28T08:26:47.196Z,64.22
2019-04-28T08:27:47.199Z,63.26
2019-04-28T08:29:40.114Z,62.52
2019-04-28T08:30:40.129Z,62.52
2019-04-28T08:32:33.052Z,61.46
2019-04-28T08:33:33.336Z,61.75
2019-04-28T08:35:25.973Z,61.40
2019-04-28T08:36:25.990Z,60.05
2019-04-28T08:38:18.914Z,60.35
2019-04-28T08:39:18.924Z,60.72
2019-04-28T08:41:11.846Z,59.09
2019-04-28T08:42:11.857Z,59.00
2019-04-28T08:44:04.772Z,60.57
2019-04-28T08:45:04.789Z,59.61
2019-04-28T08:46:57.709Z,57.50
2019-04-28T08:47:58.082Z,58.84
2019-04-28T08:49:50.635Z,59.80
2019-04-28T08:50:50.659Z,60.31
2019-04-28T08:52:43.576Z,59.73
2019-04-28T08:53:43.587Z,59.44
2019-04-28T08:55:36.505Z,56.76
2019-04-28T08:56:36.522Z,57.23
2019-04-28T08:58:29.444Z,56.95
2019-04-28T08:59:29.456Z,57.62
2019-04-28T09:01:22.379Z,55.99
2019-04-28T09:02:22.389Z,56.95
2019-04-28T09:04:15.905Z,56.46
2019-04-28T09:05:15.321Z,56.34
2019-04-28T09:07:08.242Z,56.34
2019-04-28T09:08:08.253Z,55.93
2019-04-28T09:10:01.167Z,56.70
2019-04-28T09:11:01.185Z,56.51
2019-04-28T09:12:54.105Z,57.82
2019-04-28T09:13:54.115Z,58.11
2019-04-28T09:15:47.028Z,58.30
2019-04-28T09:16:47.046Z,58.69
2019-04-28T09:18:39.967Z,59.16
2019-04-28T09:19:42.348Z,58.78
2019-04-28T09:21:32.900Z,57.70
2019-04-28T09:22:32.908Z,57.86
2019-04-28T09:24:25.821Z,59.87
2019-04-28T09:25:25.837Z,60.83
2019-04-28T09:27:18.759Z,60.44
2019-04-28T09:28:18.767Z,61.57
2019-04-28T09:30:11.677Z,62.71
2019-04-28T09:31:11.694Z,63.10
2019-04-28T09:33:04.613Z,60.89
2019-04-28T09:34:04.622Z,60.61
2019-04-28T09:35:57.535Z,61.76
2019-04-28T09:36:57.548Z,61.57
2019-04-28T09:38:50.474Z,61.85
2019-04-28T09:39:50.483Z,61.57
2019-04-28T09:41:43.403Z,61.40
2019-04-28T09:42:43.410Z,61.50
2019-04-28T09:44:36.326Z,60.64
2019-04-28T09:45:36.339Z,61.40
2019-04-28T09:47:29.260Z,61.69
2019-04-28T09:48:29.267Z,62.55
2019-04-28T09:50:22.185Z,62.49
2019-04-28T09:51:22.197Z,61.72
2019-04-28T09:53:15.116Z,57.67
2019-04-28T09:54:15.127Z,58.24
2019-04-28T09:56:08.044Z,58.44
2019-04-28T09:57:08.058Z,58.53
2019-04-28T09:59:00.978Z,59.23
2019-04-28T10:00:00.987Z,58.37
2019-04-28T10:01:53.904Z,57.98
2019-04-28T10:02:53.919Z,59.33
2019-04-28T10:04:46.828Z,59.42
2019-04-28T10:05:46.844Z,57.21
2019-04-28T10:07:39.771Z,57.53
2019-04-28T10:08:39.777Z,57.53
2019-04-28T10:10:32.692Z,57.06
2019-04-28T10:11:32.707Z,57.08
2019-04-28T10:13:25.629Z,56.22
2019-04-28T10:14:25.723Z,55.55
2019-04-28T10:16:18.552Z,54.58
2019-04-28T10:17:18.567Z,52.48
2019-04-28T10:19:11.488Z,52.83
2019-04-28T10:20:11.500Z,52.36
2019-04-28T10:22:04.438Z,53.77
2019-04-28T10:23:04.438Z,54.44
2019-04-28T10:24:57.359Z,55.68
2019-04-28T10:25:57.377Z,55.71
2019-04-28T10:27:50.300Z,54.37
2019-04-28T10:28:50.310Z,55.45
2019-04-28T10:30:43.224Z,54.68
2019-04-28T10:31:43.243Z,52.89
2019-04-28T10:33:36.164Z,53.08
2019-04-28T10:34:36.184Z,52.98
2019-04-28T10:36:29.090Z,52.79
2019-04-28T10:37:29.107Z,53.01
2019-04-28T10:39:22.034Z,53.30
2019-04-28T10:40:22.045Z,51.98
2019-04-28T10:42:14.963Z,51.50
2019-04-28T10:43:14.978Z,50.92
2019-04-28T10:45:07.902Z,50.51
2019-04-28T10:46:07.911Z,50.42
2019-04-28T10:48:00.835Z,50.82
2019-04-28T10:49:00.845Z,50.54
2019-04-28T10:50:53.812Z,48.11
2019-04-28T10:51:59.538Z,47.99
2019-04-28T10:53:46.706Z,51.51
2019-04-28T10:54:46.716Z,51.01
2019-04-28T10:56:39.633Z,53.09
2019-04-28T10:57:39.649Z,53.28
2019-04-28T10:59:32.576Z,54.70
2019-04-28T11:00:32.581Z,55.85
2019-04-28T11:02:25.514Z,59.43
2019-04-28T11:03:25.521Z,60.96
2019-04-28T11:05:18.434Z,60.83
2019-04-28T11:06:18.451Z,61.60
2019-04-28T11:08:11.369Z,61.31
2019-04-28T11:09:11.378Z,59.78
2019-04-28T11:11:04.294Z,59.78
2019-04-28T11:12:04.307Z,60.35
2019-04-28T11:13:57.225Z,58.92
2019-04-28T11:14:57.233Z,57.90
2019-04-28T11:16:50.146Z,58.86
2019-04-28T11:19:03.068Z,58.40
2019-04-28T11:20:03.080Z,58.02
2019-04-28T11:21:55.990Z,57.06
2019-04-28T11:22:56.005Z,57.16
2019-04-28T11:24:48.927Z,56.52
2019-04-28T11:25:48.933Z,55.75
2019-04-28T11:27:41.854Z,56.32
2019-04-28T11:28:41.877Z,56.90
2019-04-28T11:30:34.771Z,56.71
2019-04-28T11:31:34.787Z,56.90
2019-04-28T11:33:27.706Z,57.38
2019-04-28T11:34:27.713Z,57.38
2019-04-28T11:36:20.623Z,59.39
2019-04-28T11:37:20.639Z,56.64
2019-04-28T11:39:13.571Z,57.50
2019-04-28T11:40:13.581Z,56.54
2019-04-28T11:42:06.494Z,56.54
2019-04-28T11:43:06.509Z,55.78
2019-04-28T11:44:59.436Z,55.90
2019-04-28T11:45:59.448Z,54.46
2019-04-28T11:47:52.370Z,53.79
2019-04-28T11:48:52.379Z,53.99
2019-04-28T11:50:45.303Z,53.12
2019-04-28T11:51:45.366Z,53.31
2019-04-28T11:53:38.234Z,52.07
2019-04-28T11:54:38.237Z,52.64
2019-04-28T11:56:40.819Z,54.08
2019-04-28T11:57:31.169Z,53.41
2019-04-28T11:59:24.106Z,54.05
2019-04-28T12:00:24.105Z,55.90
2019-04-28T12:02:17.032Z,56.76
2019-04-28T12:03:17.037Z,54.68
2019-04-28T12:05:09.961Z,52.00
2019-04-28T12:06:10.031Z,51.32
2019-04-28T12:08:02.892Z,52.28
2019-04-28T12:09:02.903Z,52.57
2019-04-28T12:10:55.820Z,51.49
2019-04-28T12:11:55.837Z,51.87
2019-04-28T12:13:48.766Z,50.82
2019-04-28T12:14:48.782Z,50.92
2019-04-28T12:16:41.695Z,49.96
2019-04-28T12:17:41.712Z,50.92
2019-04-28T12:19:34.635Z,52.86
2019-04-28T12:20:34.645Z,53.05
2019-04-28T12:22:27.564Z,53.05
2019-04-28T12:23:27.582Z,53.56
2019-04-28T12:25:20.505Z,53.75
2019-04-28T12:26:20.522Z,53.17
2019-04-28T12:28:13.439Z,52.53
2019-04-28T12:29:13.480Z,50.42
2019-04-28T12:31:06.367Z,50.32
2019-04-28T12:32:06.384Z,50.44
2019-04-28T12:33:59.307Z,49.10
2019-04-28T12:34:59.317Z,48.13
2019-04-28T12:36:52.234Z,46.77
2019-04-28T12:37:52.251Z,47.27
2019-04-28T12:39:45.176Z,49.67
2019-04-28T12:40:45.186Z,49.57
2019-04-28T12:42:38.104Z,48.23
2019-04-28T12:43:38.121Z,49.00
2019-04-28T12:45:35.125Z,50.85
2019-04-28T12:46:31.058Z,49.89
2019-04-28T12:48:23.983Z,47.30
2019-04-28T12:49:23.995Z,47.49
2019-04-28T12:51:16.914Z,44.41
2019-04-28T12:52:16.933Z,45.54
2019-04-28T12:54:09.859Z,45.45
2019-04-28T12:55:09.869Z,46.58
2019-04-28T12:57:02.789Z,48.97
2019-04-28T12:58:02.808Z,49.17
2019-04-28T12:59:56.245Z,48.59
2019-04-28T13:00:56.239Z,48.69
2019-04-28T13:02:49.158Z,46.96
2019-04-28T13:03:49.172Z,46.58
2019-04-28T13:05:42.095Z,46.84
2019-04-28T13:06:42.107Z,48.09
2019-04-28T13:08:35.034Z,52.95
2019-04-28T13:09:35.043Z,54.58
2019-04-28T13:11:27.956Z,55.64
2019-04-28T13:12:27.975Z,56.19
2019-04-28T13:14:20.895Z,58.30
2019-04-28T13:15:20.907Z,58.11
2019-04-28T13:17:13.825Z,59.06
2019-04-28T13:18:13.841Z,58.69
2019-04-28T13:20:06.759Z,59.06
2019-04-28T13:21:06.770Z,58.97
2019-04-28T13:22:59.684Z,59.42
2019-04-28T13:23:59.722Z,59.61
2019-04-28T13:25:52.617Z,59.90
2019-04-28T13:26:52.630Z,59.80
2019-04-28T13:28:45.552Z,59.80
2019-04-28T13:29:45.563Z,59.58
2019-04-28T13:31:38.547Z,58.05
2019-04-28T13:32:38.502Z,59.20
2019-04-28T13:34:31.427Z,59.01
2019-04-28T13:35:31.430Z,58.27
2019-04-28T13:37:24.349Z,55.18
2019-04-28T13:38:24.362Z,54.32
2019-04-28T13:40:17.285Z,53.93
2019-04-28T13:41:17.295Z,54.48
2019-04-28T13:43:10.210Z,55.44
2019-04-28T13:44:10.226Z,56.49
2019-04-28T13:46:03.193Z,56.68
2019-04-28T13:47:03.155Z,57.26
2019-04-28T13:48:56.094Z,56.99
2019-04-28T13:49:56.085Z,55.75
2019-04-28T13:51:49.036Z,55.94
2019-04-28T13:52:49.017Z,55.75
2019-04-28T13:54:41.937Z,56.20
2019-04-28T13:55:41.946Z,56.99
2019-04-28T13:57:34.864Z,56.68
2019-04-28T13:58:34.887Z,56.77
2019-04-28T14:00:27.850Z,56.59
2019-04-28T14:01:27.846Z,57.35
2019-04-28T14:03:20.727Z,58.02
2019-04-28T14:04:20.791Z,57.73
2019-04-28T14:06:13.689Z,58.95
2019-04-28T14:07:13.669Z,59.55
2019-04-28T14:09:06.656Z,59.27
2019-04-28T14:10:06.702Z,59.75
2019-04-28T14:11:59.536Z,59.17
2019-04-28T14:12:59.566Z,58.40
2019-04-28T14:14:52.463Z,59.45
2019-04-28T14:15:52.477Z,58.59
2019-04-28T14:17:45.389Z,58.88
2019-04-28T14:18:45.405Z,57.83
2019-04-28T14:20:38.370Z,59.05
2019-04-28T14:21:38.332Z,59.23
2019-04-28T14:23:31.300Z,59.23
2019-04-28T14:24:31.279Z,59.62
2019-04-28T14:26:24.214Z,60.00
2019-04-28T14:27:24.222Z,59.43
2019-04-28T14:29:17.176Z,59.81
2019-04-28T14:30:17.177Z,59.52
2019-04-28T14:32:10.112Z,59.81
2019-04-28T14:33:10.131Z,59.91
2019-04-28T14:35:03.064Z,60.10
2019-04-28T14:36:03.040Z,59.17
2019-04-28T14:37:55.960Z,58.28
2019-04-28T14:38:55.971Z,57.73
2019-04-28T14:40:48.899Z,57.64
2019-04-28T14:41:48.899Z,57.35
2019-04-28T14:43:41.817Z,56.61
2019-04-28T14:44:41.828Z,54.96
2019-04-28T14:46:35.250Z,56.01
2019-04-28T14:47:35.256Z,56.87
2019-04-28T14:49:28.194Z,56.10
2019-04-28T14:50:28.192Z,55.91
2019-04-28T14:52:21.151Z,55.34
2019-04-28T14:53:21.127Z,55.82
2019-04-28T14:55:14.084Z,55.08
2019-04-28T14:56:14.086Z,55.56
2019-04-28T14:58:06.982Z,54.50
2019-04-28T14:59:07.006Z,55.08
2019-04-28T15:00:59.917Z,56.32
2019-04-28T15:01:59.927Z,56.90
2019-04-28T15:03:52.850Z,54.82
2019-04-28T15:04:52.856Z,54.91
2019-04-28T15:06:55.382Z,54.12
2019-04-28T15:07:46.812Z,54.63
2019-04-28T15:09:40.226Z,56.07
2019-04-28T15:10:39.718Z,56.07
2019-04-28T15:12:32.640Z,56.83
2019-04-28T15:13:32.653Z,57.41
2019-04-28T15:15:25.572Z,56.52
2019-04-28T15:16:25.581Z,56.71
2019-04-28T15:18:18.496Z,57.57
2019-04-28T15:19:18.502Z,57.28
2019-04-28T15:21:11.461Z,57.83
2019-04-28T15:22:11.437Z,58.91
2019-04-28T15:24:04.347Z,59.20
2019-04-28T15:25:04.363Z,59.11
2019-04-28T15:26:57.282Z,59.48
2019-04-28T15:27:57.292Z,59.68
2019-04-28T15:29:50.432Z,58.91
2019-04-28T15:30:50.222Z,59.77
2019-04-28T15:32:43.142Z,59.30
2019-04-28T15:33:43.151Z,59.20
2019-04-28T15:35:36.072Z,59.11
2019-04-28T15:36:36.081Z,59.55
2019-04-28T15:38:28.997Z,59.75
2019-04-28T15:39:29.013Z,59.94
2019-04-28T15:41:22.276Z,60.32
2019-04-28T15:42:21.938Z,59.65
2019-04-28T15:44:14.852Z,59.94
2019-04-28T15:45:14.866Z,60.32
2019-04-28T15:47:07.787Z,59.84
2019-04-28T15:48:07.797Z,59.77
2019-04-28T15:50:00.707Z,59.58
2019-04-28T15:51:00.725Z,60.16
2019-04-28T15:52:53.645Z,60.06
2019-04-28T15:53:53.654Z,59.75
2019-04-28T15:55:46.572Z,60.89
2019-04-28T15:56:46.581Z,61.57
2019-04-28T15:58:39.494Z,62.62
2019-04-28T15:59:39.509Z,62.23
2019-04-28T16:01:32.426Z,62.62
2019-04-28T16:02:32.440Z,62.68
2019-04-28T16:04:25.348Z,61.91
2019-04-28T16:05:25.357Z,62.87
2019-04-28T16:07:24.790Z,63.35
2019-04-28T16:08:18.280Z,63.60
2019-04-28T16:10:11.190Z,63.83
2019-04-28T16:11:11.204Z,64.56
2019-04-28T16:13:04.151Z,65.23
2019-04-28T16:14:04.125Z,65.04
2019-04-28T16:15:57.039Z,64.95
2019-04-28T16:16:57.044Z,65.42
2019-04-28T16:18:49.957Z,65.42
2019-04-28T16:19:49.966Z,64.66
2019-04-28T16:21:42.888Z,64.37
2019-04-28T16:22:42.890Z,63.80
2019-04-28T16:24:35.799Z,63.83
2019-04-28T16:25:35.812Z,63.54
2019-04-28T16:27:28.738Z,63.64
2019-04-28T16:28:28.729Z,63.35
2019-04-28T16:30:21.645Z,63.06
2019-04-28T16:31:21.659Z,63.54
2019-04-28T16:33:14.573Z,63.35
2019-04-28T16:34:14.581Z,63.42
2019-04-28T16:36:07.496Z,63.54
2019-04-28T16:37:07.504Z,63.45
2019-04-28T16:39:00.413Z,63.35
2019-04-28T16:40:00.429Z,62.59
2019-04-28T16:41:53.338Z,62.40
2019-04-28T16:42:53.344Z,62.77
2019-04-28T16:44:46.256Z,63.16
2019-04-28T16:45:46.269Z,63.35
2019-04-28T16:47:39.185Z,62.59
2019-04-28T16:48:39.191Z,62.77
2019-04-28T16:50:32.143Z,62.68
2019-04-28T16:51:32.112Z,62.77
2019-04-28T16:53:25.021Z,63.13
2019-04-28T16:54:25.200Z,63.23
2019-04-28T16:56:17.979Z,63.23
2019-04-28T16:57:17.976Z,63.23
2019-04-28T16:59:10.880Z,63.60
2019-04-28T17:00:10.894Z,63.89
2019-04-28T17:02:03.822Z,63.99
2019-04-28T17:03:03.819Z,63.99
2019-04-28T17:04:56.726Z,63.60
2019-04-28T17:05:56.740Z,63.51
2019-04-28T17:07:53.254Z,63.99
2019-04-28T17:08:49.661Z,64.66
2019-04-28T17:10:42.585Z,64.37
2019-04-28T17:11:42.598Z,64.95
2019-04-28T17:13:35.512Z,65.42
2019-04-28T17:14:35.520Z,65.61
2019-04-28T17:16:28.435Z,65.14
2019-04-28T17:17:28.441Z,64.95
2019-04-28T17:19:21.350Z,64.56
2019-04-28T17:20:21.363Z,64.47
2019-04-28T17:22:14.274Z,64.75
2019-04-28T17:23:14.286Z,64.66
2019-04-28T17:25:07.190Z,64.18
2019-04-28T17:26:07.233Z,64.75
2019-04-28T17:28:01.501Z,64.56
2019-04-28T17:29:00.124Z,64.47
2019-04-28T17:30:53.031Z,64.47
2019-04-28T17:31:53.043Z,64.47
2019-04-28T17:33:45.956Z,64.95
2019-04-28T17:34:45.965Z,65.01
2019-04-28T17:36:38.877Z,65.20
2019-04-28T17:37:38.882Z,65.87
2019-04-28T17:39:31.789Z,66.16
2019-04-28T17:40:31.802Z,66.16
2019-04-28T17:42:24.878Z,66.83
2019-04-28T17:43:24.885Z,67.21
2019-04-28T17:45:17.877Z,67.69
2019-04-28T17:46:17.853Z,67.40
2019-04-28T17:48:10.732Z,68.13
2019-04-28T17:49:10.737Z,68.32
2019-04-28T17:51:03.651Z,69.37
2019-04-28T17:52:03.665Z,69.18
2019-04-28T17:53:56.579Z,69.79
2019-04-28T17:54:56.587Z,69.56
2019-04-28T17:56:49.512Z,69.66
2019-04-28T17:57:49.519Z,69.95
2019-04-28T17:59:42.461Z,69.37
2019-04-28T18:00:42.518Z,70.61
2019-04-28T18:02:35.356Z,70.23
2019-04-28T18:03:35.360Z,70.42
2019-04-28T18:05:28.269Z,69.95
2019-04-28T18:06:28.291Z,70.07
2019-04-28T18:08:21.533Z,69.79
2019-04-28T18:09:21.227Z,69.79
2019-04-28T18:11:14.141Z,69.98
2019-04-28T18:12:14.148Z,69.21
2019-04-28T18:14:07.063Z,69.15
2019-04-28T18:15:07.068Z,69.06
2019-04-28T18:16:59.980Z,68.01
2019-04-28T18:17:59.986Z,68.10
2019-04-28T18:19:52.896Z,67.14
2019-04-28T18:20:52.904Z,67.34
2019-04-28T18:22:45.818Z,67.72
2019-04-28T18:23:45.824Z,68.01
2019-04-28T18:25:38.744Z,68.35
2019-04-28T18:26:38.757Z,68.55
2019-04-28T18:28:31.670Z,68.74
2019-04-28T18:29:31.679Z,69.31
2019-04-28T18:31:24.583Z,69.47
2019-04-28T18:32:24.605Z,70.04
2019-04-28T18:34:17.525Z,70.71